Time;durP1;ratioP1;P1;durP2;ratioP2;P2;SDS_P1;SDS_P2;PMS_P1;PMS_P2;Temp;Humidity;BMP_temperature;BMP_pressure;BME280_temperature;BME280_humidity;BME280_pressure;Samples;Min_cycle;Max_cycle;Signal;HPM_P1;HPM_P2
2022/12/13 00:01:51;;;;;;;;;35.00;27.33;;;;;;;;5062151;28;61766;-78
2022/12/13 00:04:17;;;;;;;;;26.00;19.00;;;;;;;;5054793;28;61826;-78
2022/12/13 00:06:42;;;;;;;;;27.00;16.67;;;;;;;;5041269;28;62287;-79
2022/12/13 00:09:09;;;;;;;;;31.67;23.33;;;;;;;;5060312;28;61765;-78
2022/12/13 00:11:34;;;;;;;;;42.33;25.00;;;;;;;;5062794;28;61742;-78
2022/12/13 00:14:00;;;;;;;;;22.00;15.67;;;;;;;;5060086;28;63671;-78
2022/12/13 00:16:26;;;;;;;;;22.33;20.67;;;;;;;;5062058;28;61674;-78
2022/12/13 00:18:54;;;;;;;;;27.33;19.00;;;;;;;;5061692;28;61965;-79
2022/12/13 00:21:20;;;;;;;;;21.00;15.00;;;;;;;;5062565;28;61666;-78
2022/12/13 00:23:45;;;;;;;;;29.33;19.00;;;;;;;;5061330;28;62002;-78
2022/12/13 00:26:12;;;;;;;;;26.33;21.33;;;;;;;;5062108;28;61852;-78
2022/12/13 00:28:38;;;;;;;;;25.67;21.33;;;;;;;;5062392;28;61757;-78
2022/12/13 00:31:04;;;;;;;;;37.33;20.67;;;;;;;;5062082;28;62177;-78
2022/12/13 00:33:29;;;;;;;;;27.67;19.00;;;;;;;;5060420;28;62360;-78
2022/12/13 00:35:55;;;;;;;;;27.67;22.33;;;;;;;;5059766;28;61924;-78
2022/12/13 00:38:20;;;;;;;;;22.67;17.67;;;;;;;;5061602;28;61951;-78
2022/12/13 00:40:46;;;;;;;;;28.67;18.67;;;;;;;;5061029;28;61883;-78
2022/12/13 00:43:11;;;;;;;;;24.00;19.00;;;;;;;;5061223;28;61796;-78
2022/12/13 00:45:37;;;;;;;;;28.67;16.67;;;;;;;;5061994;28;61905;-78
2022/12/13 00:48:02;;;;;;;;;32.67;24.33;;;;;;;;5061471;28;61859;-78
2022/12/13 00:50:28;;;;;;;;;24.00;18.00;;;;;;;;5062368;28;61957;-78
2022/12/13 00:52:53;;;;;;;;;35.33;22.00;;;;;;;;5061043;28;61973;-78
2022/12/13 00:55:18;;;;;;;;;28.67;19.00;;;;;;;;5060492;28;61772;-78
2022/12/13 00:57:43;;;;;;;;;28.33;21.00;;;;;;;;5060431;28;61908;-78
2022/12/13 01:00:09;;;;;;;;;28.67;19.67;;;;;;;;5060353;28;62157;-78
2022/12/13 01:02:34;;;;;;;;;29.00;21.33;;;;;;;;5060621;28;61913;-78
2022/12/13 01:05:00;;;;;;;;;22.67;16.67;;;;;;;;5059715;28;61840;-78
2022/12/13 01:07:25;;;;;;;;;21.33;18.00;;;;;;;;5061797;28;61954;-78
2022/12/13 01:09:50;;;;;;;;;19.00;13.67;;;;;;;;5062586;28;61779;-78
2022/12/13 01:12:16;;;;;;;;;28.00;20.33;;;;;;;;5064590;28;62051;-78
2022/12/13 01:14:41;;;;;;;;;29.33;16.00;;;;;;;;5064991;28;61947;-78
2022/12/13 01:17:07;;;;;;;;;18.00;15.00;;;;;;;;5065012;28;62031;-78
2022/12/13 01:19:32;;;;;;;;;25.00;16.67;;;;;;;;5065092;28;62184;-78
2022/12/13 01:21:59;;;;;;;;;21.67;15.33;;;;;;;;5064772;28;61768;-78
2022/12/13 01:24:24;;;;;;;;;22.67;17.67;;;;;;;;5063529;28;61980;-78
2022/12/13 01:26:50;;;;;;;;;20.67;18.33;;;;;;;;5063981;28;61746;-78
2022/12/13 01:29:16;;;;;;;;;24.33;16.67;;;;;;;;5064742;28;62318;-78
2022/12/13 01:31:41;;;;;;;;;25.67;11.33;;;;;;;;5064372;28;63156;-78
2022/12/13 01:34:09;;;;;;;;;26.00;18.67;;;;;;;;5064691;28;61795;-78
2022/12/13 01:36:34;;;;;;;;;24.33;16.33;;;;;;;;5065229;28;61872;-78
2022/12/13 01:39:00;;;;;;;;;17.33;11.33;;;;;;;;5065049;28;61773;-78
2022/12/13 01:41:26;;;;;;;;;23.33;15.67;;;;;;;;5064267;28;62150;-78
2022/12/13 01:43:53;;;;;;;;;20.67;14.67;;;;;;;;5064529;28;61718;-78
2022/12/13 01:46:18;;;;;;;;;15.33;13.67;;;;;;;;5064774;28;61953;-78
2022/12/13 01:49:04;;;;;;;;;14.33;7.67;;;;;;;;5064700;28;61853;-78
2022/12/13 01:51:41;;;;;;;;;16.67;13.67;;;;;;;;5063576;28;61993;-78
2022/12/13 01:54:08;;;;;;;;;20.33;13.67;;;;;;;;5064507;28;61887;-78
2022/12/13 01:56:43;;;;;;;;;18.67;16.00;;;;;;;;5042815;28;61723;-78
2022/12/13 01:59:09;;;;;;;;;19.67;15.33;;;;;;;;5044702;28;61878;-78
2022/12/13 02:01:35;;;;;;;;;27.33;18.67;;;;;;;;5043699;28;61875;-78
2022/12/13 02:04:00;;;;;;;;;24.00;12.00;;;;;;;;5043846;28;61870;-78
2022/12/13 02:06:32;;;;;;;;;24.33;15.67;;;;;;;;5043973;28;62130;-78
2022/12/13 02:08:57;;;;;;;;;14.33;12.00;;;;;;;;5044448;28;61819;-78
2022/12/13 02:11:23;;;;;;;;;20.67;13.00;;;;;;;;5043203;28;62330;-78
2022/12/13 02:13:49;;;;;;;;;20.33;15.00;;;;;;;;5043976;28;61869;-78
2022/12/13 02:16:29;;;;;;;;;19.33;15.67;;;;;;;;5043959;28;61790;-78
2022/12/13 02:18:58;;;;;;;;;18.67;17.00;;;;;;;;5042400;28;61937;-78
2022/12/13 02:21:35;;;;;;;;;22.67;15.00;;;;;;;;5040899;28;64965;-78
2022/12/13 02:24:06;;;;;;;;;15.67;12.33;;;;;;;;5044061;28;61698;-78
2022/12/13 02:26:31;;;;;;;;;19.67;16.33;;;;;;;;5042265;28;61955;-78
2022/12/13 02:29:15;;;;;;;;;17.33;13.00;;;;;;;;5042715;28;61722;-78
2022/12/13 02:31:48;;;;;;;;;15.00;12.00;;;;;;;;5042975;28;61765;-78
2022/12/13 02:34:20;;;;;;;;;16.00;10.00;;;;;;;;5043708;28;62096;-78
2022/12/13 02:36:56;;;;;;;;;11.00;9.00;;;;;;;;5043944;28;61699;-78
2022/12/13 02:39:24;;;;;;;;;19.00;12.00;;;;;;;;5043823;28;61985;-78
2022/12/13 02:41:52;;;;;;;;;19.33;10.00;;;;;;;;5043054;28;61918;-78
2022/12/13 02:44:19;;;;;;;;;29.33;17.33;;;;;;;;5043562;28;61702;-78
2022/12/13 02:46:51;;;;;;;;;16.00;12.33;;;;;;;;5043903;28;62109;-78
2022/12/13 02:49:18;;;;;;;;;21.33;14.67;;;;;;;;5043561;28;61681;-78
2022/12/13 02:51:43;;;;;;;;;16.00;12.67;;;;;;;;5042795;28;61679;-78
2022/12/13 02:54:09;;;;;;;;;14.33;6.00;;;;;;;;5043762;28;61890;-78
2022/12/13 02:56:35;;;;;;;;;18.00;10.00;;;;;;;;5062115;28;62878;-78
2022/12/13 02:59:04;;;;;;;;;23.33;15.00;;;;;;;;5063994;28;61951;-78
2022/12/13 03:01:34;;;;;;;;;21.33;12.67;;;;;;;;5062681;28;63104;-78
2022/12/13 03:04:15;;;;;;;;;21.00;13.67;;;;;;;;5061965;28;62010;-78
2022/12/13 03:06:49;;;;;;;;;28.00;15.67;;;;;;;;5062105;28;61765;-78
2022/12/13 03:09:38;;;;;;;;;19.67;13.00;;;;;;;;5063827;28;61935;-78
2022/12/13 03:15:12;;;;;;;;;16.33;15.00;;;;;;;;5063206;28;61983;-78
2022/12/13 03:17:41;;;;;;;;;21.00;13.00;;;;;;;;5063049;28;61815;-78
2022/12/13 03:20:07;;;;;;;;;19.00;15.67;;;;;;;;5063319;28;61820;-78
2022/12/13 03:22:33;;;;;;;;;15.67;7.67;;;;;;;;5062648;28;63152;-78
2022/12/13 03:24:58;;;;;;;;;16.00;13.00;;;;;;;;5062946;28;61666;-78
2022/12/13 03:27:24;;;;;;;;;15.33;10.00;;;;;;;;5063384;28;62311;-78
2022/12/13 03:29:49;;;;;;;;;21.00;15.67;;;;;;;;5063218;28;62126;-78
2022/12/13 03:32:14;;;;;;;;;19.67;13.00;;;;;;;;5060784;28;63846;-78
2022/12/13 03:34:39;;;;;;;;;15.33;12.33;;;;;;;;5062381;28;61742;-78
2022/12/13 03:37:05;;;;;;;;;17.67;12.33;;;;;;;;5061784;28;61981;-78
2022/12/13 03:39:30;;;;;;;;;20.33;12.33;;;;;;;;5062754;28;61931;-78
2022/12/13 03:41:55;;;;;;;;;17.33;13.00;;;;;;;;5062348;28;62583;-78
2022/12/13 03:44:21;;;;;;;;;21.33;17.33;;;;;;;;5061519;28;61757;-78
2022/12/13 03:46:46;;;;;;;;;19.33;16.00;;;;;;;;5062745;28;61815;-78
2022/12/13 03:49:11;;;;;;;;;24.33;16.00;;;;;;;;5062823;28;61845;-78
2022/12/13 03:51:36;;;;;;;;;19.00;13.67;;;;;;;;5062291;28;63094;-78
2022/12/13 03:54:02;;;;;;;;;17.00;14.67;;;;;;;;5061136;28;61930;-78
2022/12/13 03:56:27;;;;;;;;;27.33;18.00;;;;;;;;5062729;28;61741;-78
2022/12/13 03:58:52;;;;;;;;;19.00;12.33;;;;;;;;5061280;28;61930;-78
2022/12/13 04:01:17;;;;;;;;;26.67;18.00;;;;;;;;5062209;28;61836;-79
2022/12/13 04:03:44;;;;;;;;;21.67;12.33;;;;;;;;5060398;28;61761;-78
2022/12/13 04:06:10;;;;;;;;;19.67;15.67;;;;;;;;5061234;28;61817;-78
2022/12/13 04:08:36;;;;;;;;;12.00;9.33;;;;;;;;5062611;28;61733;-78
2022/12/13 04:13:31;;;;;;;;;22.33;17.33;;;;;;;;5061946;28;61678;-78
2022/12/13 04:13:50;;;;;;;;;24.00;16.67;;;;;;;;5061988;28;61860;-78
2022/12/13 04:16:15;;;;;;;;;19.33;13.33;;;;;;;;5062452;28;61926;-78
2022/12/13 04:18:40;;;;;;;;;24.67;13.00;;;;;;;;5062177;28;62046;-78
2022/12/13 04:21:06;;;;;;;;;34.33;13.67;;;;;;;;5060235;28;63324;-78
2022/12/13 04:23:31;;;;;;;;;31.67;22.00;;;;;;;;5060382;28;61917;-78
2022/12/13 04:25:58;;;;;;;;;19.67;13.00;;;;;;;;5062196;28;61881;-78
2022/12/13 04:28:23;;;;;;;;;28.67;15.33;;;;;;;;5061044;28;61992;-78
2022/12/13 04:30:51;;;;;;;;;18.00;16.00;;;;;;;;5061477;28;61993;-78
2022/12/13 04:33:19;;;;;;;;;20.67;15.33;;;;;;;;5061817;28;61805;-78
2022/12/13 04:35:45;;;;;;;;;17.33;16.00;;;;;;;;5061026;28;61899;-78
2022/12/13 04:38:10;;;;;;;;;14.33;14.33;;;;;;;;5062174;28;61808;-78
2022/12/13 04:40:35;;;;;;;;;20.33;17.33;;;;;;;;5061717;28;61874;-78
2022/12/13 04:43:01;;;;;;;;;21.33;13.67;;;;;;;;5061848;28;61894;-78
2022/12/13 04:45:26;;;;;;;;;18.00;13.00;;;;;;;;5061046;28;62141;-78
2022/12/13 04:47:51;;;;;;;;;14.33;11.67;;;;;;;;5062294;28;62085;-78
2022/12/13 04:50:18;;;;;;;;;20.00;14.33;;;;;;;;5059797;28;63949;-78
2022/12/13 04:52:43;;;;;;;;;20.33;16.67;;;;;;;;5061919;28;61784;-78
2022/12/13 04:55:09;;;;;;;;;11.33;11.33;;;;;;;;5061548;28;61880;-78
2022/12/13 04:57:34;;;;;;;;;20.67;16.67;;;;;;;;5060878;28;62024;-78
2022/12/13 04:59:59;;;;;;;;;27.33;20.33;;;;;;;;5061270;28;61828;-78
2022/12/13 05:02:25;;;;;;;;;24.67;18.00;;;;;;;;5060488;28;61794;-78
2022/12/13 05:04:50;;;;;;;;;19.67;17.33;;;;;;;;5059853;28;62029;-78
2022/12/13 05:07:16;;;;;;;;;25.33;19.67;;;;;;;;5061952;28;61784;-78
2022/12/13 05:09:41;;;;;;;;;26.67;18.00;;;;;;;;5059734;28;63699;-78
2022/12/13 05:12:06;;;;;;;;;20.33;10.00;;;;;;;;5061703;28;62043;-78
2022/12/13 05:14:32;;;;;;;;;21.33;15.67;;;;;;;;5060018;28;62119;-79
2022/12/13 05:16:57;;;;;;;;;25.33;18.67;;;;;;;;5061792;28;61797;-78
2022/12/13 05:19:23;;;;;;;;;25.67;18.00;;;;;;;;5060874;28;62835;-78
2022/12/13 05:21:48;;;;;;;;;17.33;17.33;;;;;;;;5061788;28;61885;-78
2022/12/13 05:24:13;;;;;;;;;21.00;16.67;;;;;;;;5061212;28;61697;-78
2022/12/13 05:26:38;;;;;;;;;30.33;21.00;;;;;;;;5062043;28;61764;-78
2022/12/13 05:29:04;;;;;;;;;25.67;18.33;;;;;;;;5059306;28;63920;-78
2022/12/13 05:31:29;;;;;;;;;23.33;20.33;;;;;;;;5061463;28;62256;-78
2022/12/13 05:33:54;;;;;;;;;16.67;16.00;;;;;;;;5060939;28;61891;-78
2022/12/13 05:36:24;;;;;;;;;17.33;15.00;;;;;;;;5060045;28;61754;-78
2022/12/13 05:38:49;;;;;;;;;27.00;23.67;;;;;;;;5060701;28;62777;-78
2022/12/13 05:41:16;;;;;;;;;19.67;16.00;;;;;;;;5061121;28;61882;-78
2022/12/13 05:43:41;;;;;;;;;21.00;15.00;;;;;;;;5059604;28;62289;-78
2022/12/13 05:46:06;;;;;;;;;23.00;16.33;;;;;;;;5061353;28;61699;-78
2022/12/13 05:48:32;;;;;;;;;20.67;16.00;;;;;;;;5060355;28;62808;-78
2022/12/13 05:50:57;;;;;;;;;21.67;19.00;;;;;;;;5059959;28;61832;-78
2022/12/13 05:53:22;;;;;;;;;25.00;17.00;;;;;;;;5061088;28;61946;-78
2022/12/13 05:55:47;;;;;;;;;25.33;18.33;;;;;;;;5061441;28;61892;-78
2022/12/13 05:58:15;;;;;;;;;36.33;28.67;;;;;;;;5062513;28;64804;-78
2022/12/13 06:00:40;;;;;;;;;27.67;23.67;;;;;;;;5064722;28;61805;-78
2022/12/13 06:03:06;;;;;;;;;30.67;25.67;;;;;;;;5063639;28;61715;-78
2022/12/13 06:05:31;;;;;;;;;12.33;9.33;;;;;;;;5062921;28;61736;-78
2022/12/13 06:07:56;;;;;;;;;26.33;21.67;;;;;;;;5063981;28;62203;-78
2022/12/13 06:10:22;;;;;;;;;34.00;20.33;;;;;;;;5064350;28;62428;-78
2022/12/13 06:12:47;;;;;;;;;16.67;15.00;;;;;;;;5063172;28;61916;-78
2022/12/13 06:15:13;;;;;;;;;22.67;17.67;;;;;;;;5062635;28;62105;-78
2022/12/13 06:17:38;;;;;;;;;25.33;18.33;;;;;;;;5063380;28;62962;-77
2022/12/13 06:20:05;;;;;;;;;19.33;16.67;;;;;;;;5064703;28;61853;-76
2022/12/13 06:22:31;;;;;;;;;29.00;19.67;;;;;;;;5064117;28;61870;-75
2022/12/13 06:24:56;;;;;;;;;26.67;21.33;;;;;;;;5064327;28;61761;-75
2022/12/13 06:27:21;;;;;;;;;34.00;21.33;;;;;;;;5063484;28;61829;-75
2022/12/13 06:29:47;;;;;;;;;21.67;21.00;;;;;;;;5063964;28;61809;-76
2022/12/13 06:32:12;;;;;;;;;21.33;15.67;;;;;;;;5064392;28;61673;-75
2022/12/13 06:34:37;;;;;;;;;27.67;21.00;;;;;;;;5064327;28;61992;-76
2022/12/13 06:37:04;;;;;;;;;31.00;25.33;;;;;;;;5061943;28;63790;-76
2022/12/13 06:39:29;;;;;;;;;24.00;19.00;;;;;;;;5063670;28;62211;-77
2022/12/13 06:41:55;;;;;;;;;34.33;23.67;;;;;;;;5063977;28;62061;-76
2022/12/13 06:44:20;;;;;;;;;24.33;21.67;;;;;;;;5062354;28;62025;-77
2022/12/13 06:46:45;;;;;;;;;32.33;28.67;;;;;;;;5061475;28;63713;-77
2022/12/13 06:49:10;;;;;;;;;21.00;18.67;;;;;;;;5061852;28;61872;-78
2022/12/13 06:51:36;;;;;;;;;26.67;24.67;;;;;;;;5054774;28;61892;-74
2022/12/13 06:54:01;;;;;;;;;35.67;28.00;;;;;;;;5051560;28;61817;-76
2022/12/13 06:56:27;;;;;;;;;36.67;24.67;;;;;;;;5054527;28;63606;-77
2022/12/13 06:58:52;;;;;;;;;35.33;30.33;;;;;;;;5052131;28;61854;-77
2022/12/13 07:01:18;;;;;;;;;53.00;38.33;;;;;;;;5052747;28;61901;-77
2022/12/13 07:03:43;;;;;;;;;38.33;33.00;;;;;;;;5052424;28;62299;-77
2022/12/13 07:06:13;;;;;;;;;38.00;33.33;;;;;;;;5057072;28;63747;-77
2022/12/13 07:08:42;;;;;;;;;58.67;39.33;;;;;;;;5052143;28;61993;-76
2022/12/13 07:11:12;;;;;;;;;35.67;27.00;;;;;;;;5050973;28;61921;-76
2022/12/13 07:13:37;;;;;;;;;38.33;27.33;;;;;;;;5047051;28;61645;-77
2022/12/13 07:16:03;;;;;;;;;27.33;21.67;;;;;;;;5044833;28;62170;-76
2022/12/13 07:18:28;;;;;;;;;25.67;17.33;;;;;;;;5042522;28;61699;-74
2022/12/13 07:20:53;;;;;;;;;29.33;24.67;;;;;;;;5041674;28;61736;-76
2022/12/13 07:23:19;;;;;;;;;32.33;25.33;;;;;;;;5051026;28;61792;-76
2022/12/13 07:25:53;;;;;;;;;29.33;17.33;;;;;;;;5052260;28;63499;-76
2022/12/13 07:28:19;;;;;;;;;33.67;25.67;;;;;;;;5054211;28;61866;-75
2022/12/13 07:30:45;;;;;;;;;30.67;21.33;;;;;;;;5061138;28;62051;-76
2022/12/13 07:33:11;;;;;;;;;39.00;20.33;;;;;;;;5062855;28;61838;-76
2022/12/13 07:35:37;;;;;;;;;29.00;17.33;;;;;;;;5061552;28;61825;-73
2022/12/13 07:38:02;;;;;;;;;35.67;29.33;;;;;;;;5062172;28;62166;-76
2022/12/13 07:40:27;;;;;;;;;58.67;44.33;;;;;;;;5053449;28;62090;-76
2022/12/13 07:42:53;;;;;;;;;66.00;46.67;;;;;;;;5049824;28;62929;-76
2022/12/13 07:45:19;;;;;;;;;52.33;44.33;;;;;;;;5045443;28;61907;-78
2022/12/13 07:47:45;;;;;;;;;37.67;31.00;;;;;;;;5062094;28;61986;-76
2022/12/13 07:50:10;;;;;;;;;38.33;28.67;;;;;;;;5060158;28;62457;-75
2022/12/13 07:52:36;;;;;;;;;31.00;23.33;;;;;;;;5052761;28;61999;-76
2022/12/13 07:55:01;;;;;;;;;33.67;25.00;;;;;;;;5053892;28;61754;-77
2022/12/13 07:57:26;;;;;;;;;27.33;25.67;;;;;;;;5062083;28;61764;-76
2022/12/13 07:59:52;;;;;;;;;30.33;25.33;;;;;;;;5061607;28;61665;-76
2022/12/13 08:02:17;;;;;;;;;36.33;26.33;;;;;;;;5061948;28;61725;-76
2022/12/13 08:04:44;;;;;;;;;35.00;29.67;;;;;;;;5060984;28;61930;-76
2022/12/13 08:07:10;;;;;;;;;33.67;27.67;;;;;;;;5062296;28;62267;-77
2022/12/13 08:09:35;;;;;;;;;21.67;18.67;;;;;;;;5057351;28;62090;-76
2022/12/13 08:12:00;;;;;;;;;44.33;32.33;;;;;;;;5061761;28;61749;-76
2022/12/13 08:14:26;;;;;;;;;42.33;28.00;;;;;;;;5061143;28;61801;-76
2022/12/13 08:16:51;;;;;;;;;26.33;21.33;;;;;;;;5061946;28;61995;-75
2022/12/13 08:19:17;;;;;;;;;37.67;28.00;;;;;;;;5061498;28;61794;-75
2022/12/13 08:21:42;;;;;;;;;36.00;30.00;;;;;;;;5062009;28;62301;-75
2022/12/13 08:24:07;;;;;;;;;44.00;37.67;;;;;;;;5061105;28;61820;-76
2022/12/13 08:26:33;;;;;;;;;33.00;29.33;;;;;;;;5060676;28;61963;-76
2022/12/13 08:28:58;;;;;;;;;31.67;23.33;;;;;;;;5061515;28;61782;-76
2022/12/13 08:31:24;;;;;;;;;35.33;27.00;;;;;;;;5094434;27;61856;-76
2022/12/13 08:33:49;;;;;;;;;46.33;38.67;;;;;;;;5060649;28;62673;-76
2022/12/13 08:36:16;;;;;;;;;34.67;30.67;;;;;;;;5061986;28;61755;-76
2022/12/13 08:38:42;;;;;;;;;43.33;30.33;;;;;;;;5061527;28;61895;-76
2022/12/13 08:41:08;;;;;;;;;32.33;24.00;;;;;;;;5060822;28;62039;-76
2022/12/13 08:43:33;;;;;;;;;42.00;33.00;;;;;;;;5059232;28;64689;-76
2022/12/13 08:45:59;;;;;;;;;33.67;27.67;;;;;;;;5061546;28;61848;-76
2022/12/13 08:48:24;;;;;;;;;41.33;33.00;;;;;;;;5061657;28;62131;-76
2022/12/13 08:50:49;;;;;;;;;38.67;28.00;;;;;;;;5061387;28;61749;-75
2022/12/13 08:53:15;;;;;;;;;39.00;26.33;;;;;;;;5060744;28;61691;-73
2022/12/13 08:55:40;;;;;;;;;40.00;27.67;;;;;;;;5061311;28;61875;-76
2022/12/13 08:58:08;;;;;;;;;39.00;25.67;;;;;;;;5061498;28;61815;-76
2022/12/13 09:00:34;;;;;;;;;33.33;27.33;;;;;;;;5061808;28;61824;-76
2022/12/13 09:02:59;;;;;;;;;33.00;27.33;;;;;;;;5060402;28;61869;-76
2022/12/13 09:05:25;;;;;;;;;39.33;24.33;;;;;;;;5060802;28;62016;-76
2022/12/13 09:07:54;;;;;;;;;34.33;27.00;;;;;;;;5059790;28;61913;-76
2022/12/13 09:10:19;;;;;;;;;33.67;26.00;;;;;;;;5061458;28;62014;-76
2022/12/13 09:12:44;;;;;;;;;27.00;22.00;;;;;;;;5060628;28;62139;-76
2022/12/13 09:15:10;;;;;;;;;27.67;21.33;;;;;;;;5059375;28;61780;-76
2022/12/13 09:17:35;;;;;;;;;27.00;22.33;;;;;;;;5061201;28;61827;-76
2022/12/13 09:20:01;;;;;;;;;43.00;25.00;;;;;;;;5061078;28;62136;-76
2022/12/13 09:22:26;;;;;;;;;29.33;25.00;;;;;;;;5060642;28;61753;-76
2022/12/13 09:24:51;;;;;;;;;31.00;22.00;;;;;;;;5060637;28;62432;-76
2022/12/13 09:27:17;;;;;;;;;34.00;25.00;;;;;;;;5052764;28;61888;-80
2022/12/13 09:29:43;;;;;;;;;36.33;27.67;;;;;;;;5041250;28;61894;-75
2022/12/13 09:32:08;;;;;;;;;35.33;27.67;;;;;;;;5040755;28;63905;-75
2022/12/13 09:34:33;;;;;;;;;33.33;24.67;;;;;;;;5044026;28;61983;-75
2022/12/13 09:36:59;;;;;;;;;33.00;24.67;;;;;;;;5042488;28;62151;-75
2022/12/13 09:39:24;;;;;;;;;38.67;28.67;;;;;;;;5044404;28;61786;-75
2022/12/13 09:41:52;;;;;;;;;29.33;25.67;;;;;;;;5043464;28;61854;-75
2022/12/13 09:44:22;;;;;;;;;34.67;24.67;;;;;;;;5043804;28;61982;-75
2022/12/13 09:46:47;;;;;;;;;34.67;22.00;;;;;;;;5044002;28;61868;-75
2022/12/13 09:49:20;;;;;;;;;67.00;50.33;;;;;;;;5043972;28;61684;-75
2022/12/13 09:51:49;;;;;;;;;27.67;25.00;;;;;;;;5043658;28;62765;-75
2022/12/13 09:54:17;;;;;;;;;34.33;27.33;;;;;;;;5044542;28;61852;-76
2022/12/13 09:56:43;;;;;;;;;37.67;30.33;;;;;;;;5064312;28;61696;-75
2022/12/13 09:59:13;;;;;;;;;37.67;28.67;;;;;;;;5062794;28;62188;-75
2022/12/13 10:01:38;;;;;;;;;37.00;30.00;;;;;;;;5062175;28;61884;-75
2022/12/13 10:04:10;;;;;;;;;42.00;37.67;;;;;;;;5047442;28;61793;-76
2022/12/13 10:06:35;;;;;;;;;70.00;48.33;;;;;;;;5062625;28;62142;-76
2022/12/13 10:09:00;;;;;;;;;46.00;35.00;;;;;;;;5064068;28;61667;-75
2022/12/13 10:11:27;;;;;;;;;41.33;32.00;;;;;;;;5060948;28;61911;-75
2022/12/13 10:13:59;;;;;;;;;41.67;30.67;;;;;;;;5042432;28;61891;-75
2022/12/13 10:16:34;;;;;;;;;41.33;29.33;;;;;;;;5042372;28;61734;-75
2022/12/13 10:19:20;;;;;;;;;45.33;38.33;;;;;;;;5042339;28;61775;-75
2022/12/13 10:21:47;;;;;;;;;45.00;34.33;;;;;;;;5043110;28;62738;-75
2022/12/13 10:24:15;;;;;;;;;41.00;29.00;;;;;;;;5043290;28;62001;-76
2022/12/13 10:26:40;;;;;;;;;48.67;32.67;;;;;;;;5042477;28;61938;-76
2022/12/13 10:29:06;;;;;;;;;37.00;33.33;;;;;;;;5043684;28;61890;-75
2022/12/13 10:31:41;;;;;;;;;42.33;30.67;;;;;;;;5041338;28;63710;-75
2022/12/13 10:34:14;;;;;;;;;29.33;25.67;;;;;;;;5042991;28;62085;-78
2022/12/13 10:36:42;;;;;;;;;30.33;24.67;;;;;;;;5043590;28;61894;-75
2022/12/13 10:39:13;;;;;;;;;35.00;30.67;;;;;;;;5043363;28;62156;-76
2022/12/13 10:41:38;;;;;;;;;55.00;40.67;;;;;;;;5042872;28;61944;-76
2022/12/13 10:44:06;;;;;;;;;29.67;25.67;;;;;;;;5041947;28;61757;-75
2022/12/13 10:46:32;;;;;;;;;56.00;38.00;;;;;;;;5043418;28;61823;-76
2022/12/13 10:48:57;;;;;;;;;35.33;31.00;;;;;;;;5043214;28;61714;-75
2022/12/13 10:51:22;;;;;;;;;39.00;31.67;;;;;;;;5042576;28;61844;-76
2022/12/13 10:53:49;;;;;;;;;46.00;31.67;;;;;;;;5042915;28;61898;-75
2022/12/13 10:56:18;;;;;;;;;44.33;32.00;;;;;;;;5060550;28;62086;-76
2022/12/13 10:58:48;;;;;;;;;32.33;25.33;;;;;;;;5061902;28;61851;-75
2022/12/13 11:01:25;;;;;;;;;39.33;27.00;;;;;;;;5062790;28;62187;-75
2022/12/13 11:04:01;;;;;;;;;39.00;25.00;;;;;;;;5062865;28;61967;-75
2022/12/13 11:06:27;;;;;;;;;28.00;23.67;;;;;;;;5062730;28;62019;-74
2022/12/13 11:08:53;;;;;;;;;42.33;29.67;;;;;;;;5061389;28;61894;-73
2022/12/13 11:11:25;;;;;;;;;40.33;31.00;;;;;;;;5062435;28;62298;-75
2022/12/13 11:13:52;;;;;;;;;35.00;24.67;;;;;;;;5062749;28;61800;-76
2022/12/13 11:16:25;;;;;;;;;32.33;27.00;;;;;;;;5061189;28;61975;-75
2022/12/13 11:18:52;;;;;;;;;43.25;21.75;;;;;;;;5062431;28;61764;-76
2022/12/13 11:21:25;;;;;;;;;32.33;26.67;;;;;;;;5061794;28;61876;-76
2022/12/13 11:23:52;;;;;;;;;39.00;32.67;;;;;;;;5095345;27;61932;-76
2022/12/13 11:26:19;;;;;;;;;25.00;22.67;;;;;;;;5061203;28;62236;-75
2022/12/13 11:28:53;;;;;;;;;30.33;23.00;;;;;;;;5091264;27;62125;-76
2022/12/13 11:31:28;;;;;;;;;38.67;22.33;;;;;;;;5042123;28;62856;-77
2022/12/13 11:33:59;;;;;;;;;34.00;27.33;;;;;;;;5043661;28;61922;-76
2022/12/13 11:36:34;;;;;;;;;54.67;34.67;;;;;;;;5062512;28;61910;-77
2022/12/13 11:39:13;;;;;;;;;33.00;28.33;;;;;;;;5062716;28;61840;-77
2022/12/13 11:41:42;;;;;;;;;44.33;27.00;;;;;;;;5054801;28;63125;-77
2022/12/13 11:44:10;;;;;;;;;32.00;24.00;;;;;;;;5040843;28;61840;-76
2022/12/13 11:46:39;;;;;;;;;50.00;29.33;;;;;;;;5042411;28;61683;-77
2022/12/13 11:49:16;;;;;;;;;25.25;23.75;;;;;;;;5042391;28;61761;-77
2022/12/13 11:51:45;;;;;;;;;36.00;24.75;;;;;;;;5041361;28;61782;-76
2022/12/13 11:54:25;;;;;;;;;24.25;19.50;;;;;;;;5040540;28;61913;-77
2022/12/13 11:56:53;;;;;;;;;36.00;29.33;;;;;;;;5062379;28;61848;-77
2022/12/13 11:59:41;;;;;;;;;33.33;27.67;;;;;;;;5062210;28;61774;-77
2022/12/13 12:02:20;;;;;;;;;39.00;30.75;;;;;;;;5061505;28;62170;-76
2022/12/13 12:04:52;;;;;;;;;40.00;28.25;;;;;;;;5059762;28;62168;-77
2022/12/13 12:07:38;;;;;;;;;33.50;22.25;;;;;;;;5062167;28;61829;-77
2022/12/13 12:10:10;;;;;;;;;39.75;26.00;;;;;;;;5055464;28;61881;-78
2022/12/13 12:12:36;;;;;;;;;30.50;24.00;;;;;;;;5049843;28;61741;-78
2022/12/13 12:15:16;;;;;;;;;29.50;21.25;;;;;;;;5052065;28;61886;-78
2022/12/13 12:17:42;;;;;;;;;31.25;27.75;;;;;;;;5047597;28;63011;-75
2022/12/13 12:20:14;;;;;;;;;42.75;26.75;;;;;;;;5061140;28;61793;-77
2022/12/13 12:22:50;;;;;;;;;38.75;27.25;;;;;;;;5059588;28;63676;-77
2022/12/13 12:25:15;;;;;;;;;40.00;30.75;;;;;;;;5060198;28;61940;-77
2022/12/13 12:27:50;;;;;;;;;40.25;32.25;;;;;;;;5052260;28;61758;-75
2022/12/13 12:30:18;;;;;;;;;48.25;35.75;;;;;;;;5043056;28;61908;-77
2022/12/13 12:32:50;;;;;;;;;35.75;26.75;;;;;;;;5048953;28;62552;-77
2022/12/13 12:35:18;;;;;;;;;28.75;23.75;;;;;;;;5050254;28;62052;-77
2022/12/13 12:37:53;;;;;;;;;34.25;28.50;;;;;;;;5052839;28;61878;-76
2022/12/13 12:40:40;;;;;;;;;59.00;44.33;;;;;;;;5051636;28;62075;-76
2022/12/13 12:43:05;;;;;;;;;45.00;35.50;;;;;;;;5051340;28;61740;-76
2022/12/13 12:45:39;;;;;;;;;61.25;43.50;;;;;;;;5050121;28;62028;-76
2022/12/13 12:48:22;;;;;;;;;23.00;22.50;;;;;;;;5049679;28;61837;-76
2022/12/13 12:51:04;;;;;;;;;24.75;16.75;;;;;;;;5042050;28;61722;-80
2022/12/13 12:53:49;;;;;;;;;43.75;36.00;;;;;;;;5040794;28;61946;-76
2022/12/13 12:56:33;;;;;;;;;24.00;17.25;;;;;;;;5057803;28;61883;-77
2022/12/13 12:59:08;;;;;;;;;31.50;21.50;;;;;;;;5061206;28;62336;-76
2022/12/13 13:01:39;;;;;;;;;30.25;24.25;;;;;;;;5061170;28;61883;-76
2022/12/13 13:04:07;;;;;;;;;27.50;21.00;;;;;;;;5060005;28;61777;-76
2022/12/13 13:06:39;;;;;;;;;32.75;22.00;;;;;;;;5062619;28;61784;-76
2022/12/13 13:09:06;;;;;;;;;28.00;20.75;;;;;;;;5063633;28;61993;-76
2022/12/13 13:11:37;;;;;;;;;30.50;24.75;;;;;;;;5065165;28;61682;-76
2022/12/13 13:14:21;;;;;;;;;27.75;23.75;;;;;;;;5064181;28;62711;-76
2022/12/13 13:16:46;;;;;;;;;26.00;22.50;;;;;;;;5063533;28;61828;-76
2022/12/13 13:19:21;;;;;;;;;29.50;22.75;;;;;;;;5064474;28;61802;-76
2022/12/13 13:21:47;;;;;;;;;29.50;20.75;;;;;;;;5063893;28;61849;-76
2022/12/13 13:24:14;;;;;;;;;21.50;17.00;;;;;;;;5064180;28;62176;-77
2022/12/13 13:26:43;;;;;;;;;31.00;22.25;;;;;;;;5063324;28;61912;-76
2022/12/13 13:29:24;;;;;;;;;26.25;22.50;;;;;;;;5064793;28;61920;-76
2022/12/13 13:32:11;;;;;;;;;26.75;22.00;;;;;;;;5064852;28;61891;-76
2022/12/13 13:34:44;;;;;;;;;24.00;21.00;;;;;;;;5061905;28;63632;-76
2022/12/13 13:37:18;;;;;;;;;28.75;18.75;;;;;;;;5063060;28;61806;-77
2022/12/13 13:39:54;;;;;;;;;31.25;26.75;;;;;;;;5064544;28;61821;-76
2022/12/13 13:42:21;;;;;;;;;25.75;23.25;;;;;;;;5064796;28;62066;-76
2022/12/13 13:44:47;;;;;;;;;22.75;17.50;;;;;;;;5062179;28;63578;-76
2022/12/13 13:47:18;;;;;;;;;29.75;20.25;;;;;;;;5064060;28;61758;-75
2022/12/13 13:50:01;;;;;;;;;35.50;25.50;;;;;;;;5064023;28;61827;-76
2022/12/13 13:52:35;;;;;;;;;25.00;20.00;;;;;;;;5063261;28;61797;-76
2022/12/13 13:55:20;;;;;;;;;22.75;18.00;;;;;;;;5061769;28;63809;-75
2022/12/13 13:57:59;;;;;;;;;31.25;17.75;;;;;;;;5064033;28;61773;-76
2022/12/13 14:00:40;;;;;;;;;22.75;15.75;;;;;;;;5055028;28;62090;-76
2022/12/13 14:03:21;;;;;;;;;23.00;20.00;;;;;;;;5051650;28;61871;-75
2022/12/13 14:06:04;;;;;;;;;31.25;20.75;;;;;;;;5052514;28;62096;-76
2022/12/13 14:08:33;;;;;;;;;28.50;24.00;;;;;;;;5055956;28;61929;-77
2022/12/13 14:11:11;;;;;;;;;29.25;22.00;;;;;;;;5051794;28;61836;-76
2022/12/13 14:13:49;;;;;;;;;19.75;17.00;;;;;;;;5058819;28;61777;-75
2022/12/13 14:16:33;;;;;;;;;28.00;24.75;;;;;;;;5061379;28;65095;-76
2022/12/13 14:19:17;;;;;;;;;26.50;22.50;;;;;;;;5052507;28;61710;-75
2022/12/13 14:21:55;;;;;;;;;33.00;21.25;;;;;;;;5054177;28;61873;-76
2022/12/13 14:24:29;;;;;;;;;31.00;20.75;;;;;;;;5053995;28;61825;-75
2022/12/13 14:26:54;;;;;;;;;18.00;17.25;;;;;;;;5059313;28;61821;-76